Accueil
METAR-TAF:

METAR-TAF

Aéroports :

Aéroport de Chambéry-Savoie

Chambery / Aix-Les-Bains, France

latitude: 45-39N, longitude: 005-53E, altitude: 235 m

Observation

Le bulletin a été fait il y a 18 minutes, à 23:00 UTC
Vent 2 kt de sud
Température -1°C
Humidité 100%
Pression 1023 hPa
Visibilité: 0700 m
brouillard givrant

METAR: LFLB 242300Z AUTO 18002KT 0800 0700 R18/2400U R36/0800U FZFG NSC M01/M01 Q1023

Heure: 00:18 (23:18 UTC)

Prévision

Le bulletin a été fait il y a 9 heures et 18 minutes, à 14:00 UTC
Prévision valable du 24 à 15 UTC au 25 à 15 UTC
Vent 3 kt de direction variable
Visibilité 10 km ou plus
pas de nuages en-dessous de 1500 mètres et pas de cumulonimbus.
Probabilité 30% :
Temporairement
du 25 à 00 UTC au 25 à 08 UTC
Visibilité: 3000 m
brume

TAF: LFLB 241400Z 2415/2515 VRB03KT CAVOK PROB30 TEMPO 2500/2508 3000 BR

Observations et prévisions météorologiques de plus de 4000 aéroports (messages METAR et TAF).

Les stations disponibles sont représentées par des disques jaunes et rouges sur la carte.

Passer la souris dessus pour voir le nom de la station.

Cliquer dessus pour voir les observations et prévisions météorologiques.

Pour changer de carte: cliquez sur les boutons verts avec une croix noire pour zoomer, sur le bouton vert avec un tiret pour effectuer un zoom arrière, ou sur les flèches vertes pour les cartes adjacentes.


METAR-TAF: